sensor_id;sensor_type;location;lat;lon;timestamp;P1;durP1;ratioP1;P2;durP2;ratioP2
14080;SDS011;7116;52.152;5.392;2023-03-19T00:01:07;4.77;;;2.60;;
14080;SDS011;7116;52.152;5.392;2023-03-19T00:03:33;5.07;;;2.70;;
14080;SDS011;7116;52.152;5.392;2023-03-19T00:05:58;3.13;;;2.50;;
14080;SDS011;7116;52.152;5.392;2023-03-19T00:08:24;4.15;;;2.85;;
14080;SDS011;7116;52.152;5.392;2023-03-19T00:10:49;4.63;;;3.00;;
14080;SDS011;7116;52.152;5.392;2023-03-19T00:13:15;4.53;;;3.13;;
14080;SDS011;7116;52.152;5.392;2023-03-19T00:15:40;5.17;;;3.17;;
14080;SDS011;7116;52.152;5.392;2023-03-19T00:18:06;6.77;;;3.27;;
14080;SDS011;7116;52.152;5.392;2023-03-19T00:20:32;5.35;;;3.63;;
14080;SDS011;7116;52.152;5.392;2023-03-19T00:22:57;3.90;;;2.87;;
14080;SDS011;7116;52.152;5.392;2023-03-19T00:25:22;5.80;;;3.37;;
14080;SDS011;7116;52.152;5.392;2023-03-19T00:27:48;3.70;;;3.13;;
14080;SDS011;7116;52.152;5.392;2023-03-19T00:30:13;4.13;;;3.20;;
14080;SDS011;7116;52.152;5.392;2023-03-19T00:32:39;3.93;;;3.33;;
14080;SDS011;7116;52.152;5.392;2023-03-19T00:35:04;4.33;;;2.73;;
14080;SDS011;7116;52.152;5.392;2023-03-19T00:37:33;4.55;;;3.55;;
14080;SDS011;7116;52.152;5.392;2023-03-19T00:39:58;4.43;;;2.70;;
14080;SDS011;7116;52.152;5.392;2023-03-19T00:42:23;5.73;;;3.43;;
14080;SDS011;7116;52.152;5.392;2023-03-19T00:44:48;5.23;;;3.20;;
14080;SDS011;7116;52.152;5.392;2023-03-19T00:47:14;5.67;;;3.40;;
14080;SDS011;7116;52.152;5.392;2023-03-19T00:49:39;5.10;;;3.80;;
14080;SDS011;7116;52.152;5.392;2023-03-19T00:52:04;4.13;;;3.50;;
14080;SDS011;7116;52.152;5.392;2023-03-19T00:54:30;3.97;;;3.03;;
14080;SDS011;7116;52.152;5.392;2023-03-19T00:56:56;5.93;;;3.35;;
14080;SDS011;7116;52.152;5.392;2023-03-19T00:59:21;6.97;;;2.90;;
14080;SDS011;7116;52.152;5.392;2023-03-19T01:01:47;4.93;;;3.43;;
14080;SDS011;7116;52.152;5.392;2023-03-19T01:04:12;5.87;;;3.07;;
14080;SDS011;7116;52.152;5.392;2023-03-19T01:06:38;7.37;;;3.80;;
14080;SDS011;7116;52.152;5.392;2023-03-19T01:09:03;5.93;;;3.10;;
14080;SDS011;7116;52.152;5.392;2023-03-19T01:11:29;4.70;;;3.60;;
14080;SDS011;7116;52.152;5.392;2023-03-19T01:13:54;3.80;;;2.93;;
14080;SDS011;7116;52.152;5.392;2023-03-19T01:16:19;6.57;;;3.37;;
14080;SDS011;7116;52.152;5.392;2023-03-19T01:18:44;5.00;;;2.90;;
14080;SDS011;7116;52.152;5.392;2023-03-19T01:21:10;4.88;;;3.60;;
14080;SDS011;7116;52.152;5.392;2023-03-19T01:23:35;6.87;;;4.00;;
14080;SDS011;7116;52.152;5.392;2023-03-19T01:26:00;6.07;;;3.40;;
14080;SDS011;7116;52.152;5.392;2023-03-19T01:28:26;5.13;;;4.07;;
14080;SDS011;7116;52.152;5.392;2023-03-19T01:30:51;4.90;;;3.43;;
14080;SDS011;7116;52.152;5.392;2023-03-19T01:33:16;4.50;;;3.27;;
14080;SDS011;7116;52.152;5.392;2023-03-19T01:35:44;5.03;;;3.33;;
14080;SDS011;7116;52.152;5.392;2023-03-19T01:38:10;5.38;;;3.55;;
14080;SDS011;7116;52.152;5.392;2023-03-19T01:40:35;7.07;;;4.37;;
14080;SDS011;7116;52.152;5.392;2023-03-19T01:43:18;4.73;;;3.63;;
14080;SDS011;7116;52.152;5.392;2023-03-19T01:45:43;7.22;;;3.50;;
14080;SDS011;7116;52.152;5.392;2023-03-19T01:48:17;5.80;;;3.50;;
14080;SDS011;7116;52.152;5.392;2023-03-19T01:50:43;5.87;;;3.97;;
14080;SDS011;7116;52.152;5.392;2023-03-19T01:53:10;4.43;;;3.15;;
14080;SDS011;7116;52.152;5.392;2023-03-19T01:55:36;4.82;;;3.88;;
14080;SDS011;7116;52.152;5.392;2023-03-19T01:58:01;4.07;;;3.27;;
14080;SDS011;7116;52.152;5.392;2023-03-19T02:00:27;4.68;;;3.78;;
14080;SDS011;7116;52.152;5.392;2023-03-19T02:02:53;4.53;;;3.57;;
14080;SDS011;7116;52.152;5.392;2023-03-19T02:05:19;5.18;;;3.80;;
14080;SDS011;7116;52.152;5.392;2023-03-19T02:07:49;5.10;;;4.10;;
14080;SDS011;7116;52.152;5.392;2023-03-19T02:10:16;5.22;;;4.15;;
14080;SDS011;7116;52.152;5.392;2023-03-19T02:12:42;5.33;;;4.47;;
14080;SDS011;7116;52.152;5.392;2023-03-19T02:15:07;7.13;;;4.00;;
14080;SDS011;7116;52.152;5.392;2023-03-19T02:17:33;7.87;;;4.40;;
14080;SDS011;7116;52.152;5.392;2023-03-19T02:20:16;6.03;;;3.93;;
14080;SDS011;7116;52.152;5.392;2023-03-19T02:22:49;6.35;;;4.13;;
14080;SDS011;7116;52.152;5.392;2023-03-19T02:25:36;5.80;;;4.18;;
14080;SDS011;7116;52.152;5.392;2023-03-19T02:28:03;6.03;;;4.68;;
14080;SDS011;7116;52.152;5.392;2023-03-19T02:30:30;6.73;;;4.93;;
14080;SDS011;7116;52.152;5.392;2023-03-19T02:32:56;5.57;;;3.75;;
14080;SDS011;7116;52.152;5.392;2023-03-19T02:35:21;5.93;;;4.10;;
14080;SDS011;7116;52.152;5.392;2023-03-19T02:37:46;5.97;;;5.13;;
14080;SDS011;7116;52.152;5.392;2023-03-19T02:40:13;5.63;;;3.90;;
14080;SDS011;7116;52.152;5.392;2023-03-19T02:42:40;6.07;;;4.27;;
14080;SDS011;7116;52.152;5.392;2023-03-19T02:45:05;5.63;;;4.07;;
14080;SDS011;7116;52.152;5.392;2023-03-19T02:47:31;6.80;;;4.03;;
14080;SDS011;7116;52.152;5.392;2023-03-19T02:49:56;6.67;;;3.97;;
14080;SDS011;7116;52.152;5.392;2023-03-19T02:52:21;8.03;;;4.40;;
14080;SDS011;7116;52.152;5.392;2023-03-19T02:54:47;6.27;;;4.23;;
14080;SDS011;7116;52.152;5.392;2023-03-19T02:57:12;8.20;;;5.20;;
14080;SDS011;7116;52.152;5.392;2023-03-19T02:59:37;6.17;;;4.80;;
14080;SDS011;7116;52.152;5.392;2023-03-19T03:02:03;6.40;;;4.80;;
14080;SDS011;7116;52.152;5.392;2023-03-19T03:04:28;8.80;;;5.10;;
14080;SDS011;7116;52.152;5.392;2023-03-19T03:06:53;6.33;;;5.00;;
14080;SDS011;7116;52.152;5.392;2023-03-19T03:09:18;7.70;;;5.13;;
14080;SDS011;7116;52.152;5.392;2023-03-19T03:11:44;7.03;;;4.80;;
14080;SDS011;7116;52.152;5.392;2023-03-19T03:14:09;6.27;;;4.93;;
14080;SDS011;7116;52.152;5.392;2023-03-19T03:16:35;6.80;;;4.93;;
14080;SDS011;7116;52.152;5.392;2023-03-19T03:19:01;7.40;;;6.05;;
14080;SDS011;7116;52.152;5.392;2023-03-19T03:21:26;10.17;;;5.53;;
14080;SDS011;7116;52.152;5.392;2023-03-19T03:23:51;7.63;;;6.00;;
14080;SDS011;7116;52.152;5.392;2023-03-19T03:26:17;7.57;;;5.73;;
14080;SDS011;7116;52.152;5.392;2023-03-19T03:28:42;8.43;;;5.77;;
14080;SDS011;7116;52.152;5.392;2023-03-19T03:31:08;7.80;;;5.40;;
14080;SDS011;7116;52.152;5.392;2023-03-19T03:33:33;8.07;;;5.53;;
14080;SDS011;7116;52.152;5.392;2023-03-19T03:35:58;10.17;;;5.40;;
14080;SDS011;7116;52.152;5.392;2023-03-19T03:38:23;9.43;;;6.03;;
14080;SDS011;7116;52.152;5.392;2023-03-19T03:40:52;8.07;;;5.77;;
14080;SDS011;7116;52.152;5.392;2023-03-19T03:43:18;8.63;;;6.22;;
14080;SDS011;7116;52.152;5.392;2023-03-19T03:45:44;8.10;;;6.00;;
14080;SDS011;7116;52.152;5.392;2023-03-19T03:48:10;8.07;;;5.77;;
14080;SDS011;7116;52.152;5.392;2023-03-19T03:50:35;7.50;;;6.33;;
14080;SDS011;7116;52.152;5.392;2023-03-19T03:53:00;7.67;;;6.23;;
14080;SDS011;7116;52.152;5.392;2023-03-19T03:55:25;9.07;;;6.23;;
14080;SDS011;7116;52.152;5.392;2023-03-19T03:57:52;7.22;;;5.57;;
14080;SDS011;7116;52.152;5.392;2023-03-19T04:00:17;8.20;;;6.20;;
14080;SDS011;7116;52.152;5.392;2023-03-19T04:02:43;12.00;;;6.73;;
14080;SDS011;7116;52.152;5.392;2023-03-19T04:05:08;10.73;;;6.60;;
14080;SDS011;7116;52.152;5.392;2023-03-19T04:07:33;10.00;;;6.47;;
14080;SDS011;7116;52.152;5.392;2023-03-19T04:09:58;10.20;;;6.63;;
14080;SDS011;7116;52.152;5.392;2023-03-19T04:12:24;8.67;;;6.20;;
14080;SDS011;7116;52.152;5.392;2023-03-19T04:14:49;11.00;;;6.40;;
14080;SDS011;7116;52.152;5.392;2023-03-19T04:17:14;9.53;;;6.53;;
14080;SDS011;7116;52.152;5.392;2023-03-19T04:19:40;9.07;;;6.40;;
14080;SDS011;7116;52.152;5.392;2023-03-19T04:22:07;9.48;;;7.22;;
14080;SDS011;7116;52.152;5.392;2023-03-19T04:24:32;8.53;;;6.40;;
14080;SDS011;7116;52.152;5.392;2023-03-19T04:26:58;8.93;;;6.90;;
14080;SDS011;7116;52.152;5.392;2023-03-19T04:29:23;7.73;;;6.77;;
14080;SDS011;7116;52.152;5.392;2023-03-19T04:31:48;8.80;;;6.70;;
14080;SDS011;7116;52.152;5.392;2023-03-19T04:34:14;9.30;;;7.05;;
14080;SDS011;7116;52.152;5.392;2023-03-19T04:36:39;10.87;;;7.73;;
14080;SDS011;7116;52.152;5.392;2023-03-19T04:39:05;10.10;;;7.73;;
14080;SDS011;7116;52.152;5.392;2023-03-19T04:41:30;11.03;;;6.60;;
14080;SDS011;7116;52.152;5.392;2023-03-19T04:43:55;9.13;;;6.97;;
14080;SDS011;7116;52.152;5.392;2023-03-19T04:46:21;8.47;;;6.87;;
14080;SDS011;7116;52.152;5.392;2023-03-19T04:48:46;11.63;;;7.60;;
14080;SDS011;7116;52.152;5.392;2023-03-19T04:51:11;10.95;;;7.60;;
14080;SDS011;7116;52.152;5.392;2023-03-19T04:53:37;11.80;;;7.37;;
14080;SDS011;7116;52.152;5.392;2023-03-19T04:56:04;9.43;;;6.70;;
14080;SDS011;7116;52.152;5.392;2023-03-19T04:58:30;9.27;;;7.72;;
14080;SDS011;7116;52.152;5.392;2023-03-19T05:00:56;9.70;;;7.90;;
14080;SDS011;7116;52.152;5.392;2023-03-19T05:03:21;9.10;;;7.50;;
14080;SDS011;7116;52.152;5.392;2023-03-19T05:05:46;12.70;;;7.60;;
14080;SDS011;7116;52.152;5.392;2023-03-19T05:08:11;12.77;;;7.90;;
14080;SDS011;7116;52.152;5.392;2023-03-19T05:10:37;11.87;;;8.27;;
14080;SDS011;7116;52.152;5.392;2023-03-19T05:13:03;9.60;;;7.20;;
14080;SDS011;7116;52.152;5.392;2023-03-19T05:15:28;9.95;;;7.07;;
14080;SDS011;7116;52.152;5.392;2023-03-19T05:17:53;10.25;;;8.15;;
14080;SDS011;7116;52.152;5.392;2023-03-19T05:20:19;10.47;;;7.67;;
14080;SDS011;7116;52.152;5.392;2023-03-19T05:22:44;10.70;;;8.40;;
14080;SDS011;7116;52.152;5.392;2023-03-19T05:25:10;10.63;;;7.80;;
14080;SDS011;7116;52.152;5.392;2023-03-19T05:27:36;12.13;;;6.90;;
14080;SDS011;7116;52.152;5.392;2023-03-19T05:30:01;10.77;;;8.27;;
14080;SDS011;7116;52.152;5.392;2023-03-19T05:32:27;11.20;;;8.83;;
14080;SDS011;7116;52.152;5.392;2023-03-19T05:34:52;10.68;;;8.00;;
14080;SDS011;7116;52.152;5.392;2023-03-19T05:37:18;11.60;;;8.83;;
14080;SDS011;7116;52.152;5.392;2023-03-19T05:39:43;11.53;;;8.47;;
14080;SDS011;7116;52.152;5.392;2023-03-19T05:42:08;11.93;;;8.70;;
14080;SDS011;7116;52.152;5.392;2023-03-19T05:44:33;12.33;;;8.63;;
14080;SDS011;7116;52.152;5.392;2023-03-19T05:46:59;10.57;;;8.73;;
14080;SDS011;7116;52.152;5.392;2023-03-19T05:49:24;12.67;;;8.47;;
14080;SDS011;7116;52.152;5.392;2023-03-19T05:51:49;11.77;;;8.27;;
14080;SDS011;7116;52.152;5.392;2023-03-19T05:54:15;11.90;;;7.88;;
14080;SDS011;7116;52.152;5.392;2023-03-19T05:56:40;12.03;;;8.30;;
14080;SDS011;7116;52.152;5.392;2023-03-19T05:59:05;10.00;;;8.70;;
14080;SDS011;7116;52.152;5.392;2023-03-19T06:01:31;10.50;;;8.33;;
14080;SDS011;7116;52.152;5.392;2023-03-19T06:03:56;13.83;;;9.27;;
14080;SDS011;7116;52.152;5.392;2023-03-19T06:06:21;13.30;;;8.70;;
14080;SDS011;7116;52.152;5.392;2023-03-19T06:08:46;9.90;;;8.03;;
14080;SDS011;7116;52.152;5.392;2023-03-19T06:11:12;10.77;;;8.33;;
14080;SDS011;7116;52.152;5.392;2023-03-19T06:13:37;11.13;;;8.13;;
14080;SDS011;7116;52.152;5.392;2023-03-19T06:16:03;11.60;;;8.57;;
14080;SDS011;7116;52.152;5.392;2023-03-19T06:18:28;11.23;;;8.70;;
14080;SDS011;7116;52.152;5.392;2023-03-19T06:20:53;12.87;;;9.20;;
14080;SDS011;7116;52.152;5.392;2023-03-19T06:23:18;14.53;;;9.57;;
14080;SDS011;7116;52.152;5.392;2023-03-19T06:25:44;11.67;;;9.30;;
14080;SDS011;7116;52.152;5.392;2023-03-19T06:28:09;18.85;;;9.95;;
14080;SDS011;7116;52.152;5.392;2023-03-19T06:30:35;20.33;;;11.83;;
14080;SDS011;7116;52.152;5.392;2023-03-19T06:33:00;14.57;;;10.77;;
14080;SDS011;7116;52.152;5.392;2023-03-19T06:35:26;14.40;;;10.80;;
14080;SDS011;7116;52.152;5.392;2023-03-19T06:37:51;21.20;;;11.57;;
14080;SDS011;7116;52.152;5.392;2023-03-19T06:40:16;15.60;;;10.17;;
14080;SDS011;7116;52.152;5.392;2023-03-19T06:42:45;15.67;;;10.53;;
14080;SDS011;7116;52.152;5.392;2023-03-19T06:45:11;17.10;;;11.18;;
14080;SDS011;7116;52.152;5.392;2023-03-19T06:47:36;12.63;;;9.77;;
14080;SDS011;7116;52.152;5.392;2023-03-19T06:50:01;13.00;;;10.20;;
14080;SDS011;7116;52.152;5.392;2023-03-19T06:52:27;14.02;;;10.95;;
14080;SDS011;7116;52.152;5.392;2023-03-19T06:54:52;14.63;;;10.40;;
14080;SDS011;7116;52.152;5.392;2023-03-19T06:57:17;15.80;;;10.23;;
14080;SDS011;7116;52.152;5.392;2023-03-19T06:59:42;15.03;;;10.57;;
14080;SDS011;7116;52.152;5.392;2023-03-19T07:02:11;15.40;;;11.00;;
14080;SDS011;7116;52.152;5.392;2023-03-19T07:04:36;20.30;;;10.65;;
14080;SDS011;7116;52.152;5.392;2023-03-19T07:07:01;15.27;;;10.00;;
14080;SDS011;7116;52.152;5.392;2023-03-19T07:09:29;15.55;;;10.68;;
14080;SDS011;7116;52.152;5.392;2023-03-19T07:11:54;16.23;;;10.13;;
14080;SDS011;7116;52.152;5.392;2023-03-19T07:14:19;19.03;;;12.07;;
14080;SDS011;7116;52.152;5.392;2023-03-19T07:16:44;21.13;;;12.30;;
14080;SDS011;7116;52.152;5.392;2023-03-19T07:19:10;20.00;;;13.03;;
14080;SDS011;7116;52.152;5.392;2023-03-19T07:21:35;23.00;;;13.23;;
14080;SDS011;7116;52.152;5.392;2023-03-19T07:24:00;22.63;;;13.70;;
14080;SDS011;7116;52.152;5.392;2023-03-19T07:26:25;22.70;;;14.40;;
14080;SDS011;7116;52.152;5.392;2023-03-19T07:28:51;23.57;;;14.00;;
14080;SDS011;7116;52.152;5.392;2023-03-19T07:31:16;22.60;;;13.60;;
14080;SDS011;7116;52.152;5.392;2023-03-19T07:33:42;25.65;;;14.38;;
14080;SDS011;7116;52.152;5.392;2023-03-19T07:36:07;24.60;;;15.87;;
14080;SDS011;7116;52.152;5.392;2023-03-19T07:38:33;29.23;;;15.47;;
14080;SDS011;7116;52.152;5.392;2023-03-19T07:40:58;27.63;;;16.03;;
14080;SDS011;7116;52.152;5.392;2023-03-19T07:43:23;30.57;;;17.27;;
14080;SDS011;7116;52.152;5.392;2023-03-19T07:45:48;31.00;;;17.60;;
14080;SDS011;7116;52.152;5.392;2023-03-19T07:48:13;25.90;;;15.60;;
14080;SDS011;7116;52.152;5.392;2023-03-19T07:50:39;33.53;;;17.57;;
14080;SDS011;7116;52.152;5.392;2023-03-19T07:53:04;32.40;;;15.07;;
14080;SDS011;7116;52.152;5.392;2023-03-19T07:55:30;26.07;;;15.57;;
14080;SDS011;7116;52.152;5.392;2023-03-19T07:57:55;27.90;;;15.97;;
14080;SDS011;7116;52.152;5.392;2023-03-19T08:00:20;24.30;;;14.73;;
14080;SDS011;7116;52.152;5.392;2023-03-19T08:02:46;21.13;;;12.90;;
14080;SDS011;7116;52.152;5.392;2023-03-19T08:05:11;20.33;;;14.20;;
14080;SDS011;7116;52.152;5.392;2023-03-19T08:07:36;19.30;;;12.17;;
14080;SDS011;7116;52.152;5.392;2023-03-19T08:10:02;23.90;;;14.30;;
14080;SDS011;7116;52.152;5.392;2023-03-19T08:12:28;21.30;;;13.40;;
14080;SDS011;7116;52.152;5.392;2023-03-19T08:14:53;20.93;;;14.03;;
14080;SDS011;7116;52.152;5.392;2023-03-19T08:17:18;20.87;;;14.20;;
14080;SDS011;7116;52.152;5.392;2023-03-19T08:19:43;20.20;;;13.30;;
14080;SDS011;7116;52.152;5.392;2023-03-19T08:22:11;18.38;;;12.27;;
14080;SDS011;7116;52.152;5.392;2023-03-19T08:24:37;20.27;;;13.40;;
14080;SDS011;7116;52.152;5.392;2023-03-19T08:27:02;21.37;;;13.07;;
14080;SDS011;7116;52.152;5.392;2023-03-19T08:29:27;17.92;;;13.05;;
14080;SDS011;7116;52.152;5.392;2023-03-19T08:31:53;19.77;;;13.03;;
14080;SDS011;7116;52.152;5.392;2023-03-19T08:34:19;17.97;;;13.03;;
14080;SDS011;7116;52.152;5.392;2023-03-19T08:36:44;20.70;;;13.52;;
14080;SDS011;7116;52.152;5.392;2023-03-19T08:39:10;19.40;;;13.33;;
14080;SDS011;7116;52.152;5.392;2023-03-19T08:41:35;19.00;;;12.70;;
14080;SDS011;7116;52.152;5.392;2023-03-19T08:44:01;21.77;;;13.30;;
14080;SDS011;7116;52.152;5.392;2023-03-19T08:46:26;22.33;;;14.30;;
14080;SDS011;7116;52.152;5.392;2023-03-19T08:48:51;20.43;;;13.90;;
14080;SDS011;7116;52.152;5.392;2023-03-19T08:51:17;20.53;;;13.37;;
14080;SDS011;7116;52.152;5.392;2023-03-19T08:53:42;24.60;;;14.37;;
14080;SDS011;7116;52.152;5.392;2023-03-19T08:56:07;16.13;;;11.33;;
14080;SDS011;7116;52.152;5.392;2023-03-19T08:58:32;19.10;;;13.57;;
14080;SDS011;7116;52.152;5.392;2023-03-19T09:01:05;17.88;;;12.73;;
14080;SDS011;7116;52.152;5.392;2023-03-19T09:03:31;18.17;;;11.53;;
14080;SDS011;7116;52.152;5.392;2023-03-19T09:05:57;19.03;;;11.20;;
14080;SDS011;7116;52.152;5.392;2023-03-19T09:08:22;17.02;;;11.70;;
14080;SDS011;7116;52.152;5.392;2023-03-19T09:10:47;17.03;;;10.77;;
14080;SDS011;7116;52.152;5.392;2023-03-19T09:13:12;17.23;;;11.53;;
14080;SDS011;7116;52.152;5.392;2023-03-19T09:15:37;16.10;;;11.27;;
14080;SDS011;7116;52.152;5.392;2023-03-19T09:18:03;19.67;;;12.70;;
14080;SDS011;7116;52.152;5.392;2023-03-19T09:20:28;19.77;;;12.67;;
14080;SDS011;7116;52.152;5.392;2023-03-19T09:22:53;19.90;;;12.43;;
14080;SDS011;7116;52.152;5.392;2023-03-19T09:25:18;19.60;;;12.93;;
14080;SDS011;7116;52.152;5.392;2023-03-19T09:27:43;18.47;;;13.73;;
14080;SDS011;7116;52.152;5.392;2023-03-19T09:30:09;17.43;;;12.67;;
14080;SDS011;7116;52.152;5.392;2023-03-19T09:32:35;16.38;;;11.23;;
14080;SDS011;7116;52.152;5.392;2023-03-19T09:35:00;15.00;;;10.57;;
14080;SDS011;7116;52.152;5.392;2023-03-19T09:37:25;17.13;;;11.67;;
14080;SDS011;7116;52.152;5.392;2023-03-19T09:39:51;16.30;;;11.27;;
14080;SDS011;7116;52.152;5.392;2023-03-19T09:44:44;13.70;;;10.50;;
14080;SDS011;7116;52.152;5.392;2023-03-19T09:49:48;16.63;;;10.40;;
14080;SDS011;7116;52.152;5.392;2023-03-19T09:54:49;15.68;;;11.00;;
14080;SDS011;7116;52.152;5.392;2023-03-19T09:57:16;16.75;;;10.88;;
14080;SDS011;7116;52.152;5.392;2023-03-19T09:59:42;16.90;;;11.47;;
14080;SDS011;7116;52.152;5.392;2023-03-19T10:07:24;16.27;;;10.93;;
14080;SDS011;7116;52.152;5.392;2023-03-19T10:12:43;14.93;;;10.47;;
14080;SDS011;7116;52.152;5.392;2023-03-19T10:15:16;16.10;;;10.98;;
14080;SDS011;7116;52.152;5.392;2023-03-19T10:17:53;16.85;;;10.40;;
14080;SDS011;7116;52.152;5.392;2023-03-19T10:22:47;16.83;;;11.73;;
14080;SDS011;7116;52.152;5.392;2023-03-19T10:25:20;16.07;;;10.73;;
14080;SDS011;7116;52.152;5.392;2023-03-19T10:27:48;14.30;;;10.48;;
14080;SDS011;7116;52.152;5.392;2023-03-19T10:30:15;17.20;;;11.02;;
14080;SDS011;7116;52.152;5.392;2023-03-19T10:32:42;17.05;;;11.25;;
14080;SDS011;7116;52.152;5.392;2023-03-19T10:35:11;19.08;;;10.95;;
14080;SDS011;7116;52.152;5.392;2023-03-19T10:37:40;17.07;;;11.23;;
14080;SDS011;7116;52.152;5.392;2023-03-19T10:40:05;14.00;;;10.03;;
14080;SDS011;7116;52.152;5.392;2023-03-19T10:42:43;16.13;;;11.80;;
14080;SDS011;7116;52.152;5.392;2023-03-19T10:45:30;16.05;;;11.23;;
14080;SDS011;7116;52.152;5.392;2023-03-19T10:47:56;18.70;;;11.02;;
14080;SDS011;7116;52.152;5.392;2023-03-19T10:50:22;17.77;;;10.90;;
14080;SDS011;7116;52.152;5.392;2023-03-19T10:52:56;19.55;;;11.52;;
14080;SDS011;7116;52.152;5.392;2023-03-19T10:55:24;22.13;;;12.40;;
14080;SDS011;7116;52.152;5.392;2023-03-19T10:57:50;18.35;;;12.48;;
14080;SDS011;7116;52.152;5.392;2023-03-19T11:00:24;18.15;;;12.50;;
14080;SDS011;7116;52.152;5.392;2023-03-19T11:02:53;18.17;;;12.50;;
14080;SDS011;7116;52.152;5.392;2023-03-19T11:05:26;17.52;;;11.25;;
14080;SDS011;7116;52.152;5.392;2023-03-19T11:07:56;17.23;;;11.00;;
14080;SDS011;7116;52.152;5.392;2023-03-19T11:10:23;19.95;;;13.13;;
14080;SDS011;7116;52.152;5.392;2023-03-19T11:12:53;17.90;;;12.10;;
14080;SDS011;7116;52.152;5.392;2023-03-19T11:15:21;19.27;;;11.93;;
14080;SDS011;7116;52.152;5.392;2023-03-19T11:20:19;22.13;;;12.50;;
14080;SDS011;7116;52.152;5.392;2023-03-19T11:22:46;16.75;;;11.80;;
14080;SDS011;7116;52.152;5.392;2023-03-19T11:27:44;15.98;;;10.70;;
14080;SDS011;7116;52.152;5.392;2023-03-19T11:30:21;15.90;;;10.23;;
14080;SDS011;7116;52.152;5.392;2023-03-19T11:32:56;15.20;;;10.30;;
14080;SDS011;7116;52.152;5.392;2023-03-19T11:38:11;15.07;;;10.02;;
14080;SDS011;7116;52.152;5.392;2023-03-19T11:45:56;14.82;;;9.95;;
14080;SDS011;7116;52.152;5.392;2023-03-19T11:51:27;15.77;;;9.60;;
14080;SDS011;7116;52.152;5.392;2023-03-19T11:53:59;16.57;;;9.33;;
14080;SDS011;7116;52.152;5.392;2023-03-19T11:58:57;16.95;;;10.75;;
14080;SDS011;7116;52.152;5.392;2023-03-19T12:06:39;15.43;;;11.07;;
14080;SDS011;7116;52.152;5.392;2023-03-19T12:11:53;18.70;;;11.05;;
14080;SDS011;7116;52.152;5.392;2023-03-19T12:27:48;19.90;;;11.10;;
14080;SDS011;7116;52.152;5.392;2023-03-19T12:35:37;17.73;;;10.50;;
14080;SDS011;7116;52.152;5.392;2023-03-19T12:43:09;19.60;;;10.25;;
14080;SDS011;7116;52.152;5.392;2023-03-19T12:45:39;17.17;;;9.97;;
14080;SDS011;7116;52.152;5.392;2023-03-19T12:48:10;18.70;;;10.95;;
14080;SDS011;7116;52.152;5.392;2023-03-19T12:50:38;16.88;;;9.77;;
14080;SDS011;7116;52.152;5.392;2023-03-19T12:53:06;17.27;;;11.25;;
14080;SDS011;7116;52.152;5.392;2023-03-19T12:55:39;24.95;;;19.98;;
14080;SDS011;7116;52.152;5.392;2023-03-19T13:00:51;17.65;;;10.18;;
14080;SDS011;7116;52.152;5.392;2023-03-19T13:03:21;19.63;;;10.85;;
14080;SDS011;7116;52.152;5.392;2023-03-19T13:05:52;18.55;;;10.68;;
14080;SDS011;7116;52.152;5.392;2023-03-19T13:08:38;23.77;;;12.27;;
14080;SDS011;7116;52.152;5.392;2023-03-19T13:11:10;21.40;;;10.33;;
14080;SDS011;7116;52.152;5.392;2023-03-19T13:13:49;18.60;;;9.95;;
14080;SDS011;7116;52.152;5.392;2023-03-19T13:16:29;20.00;;;10.25;;
14080;SDS011;7116;52.152;5.392;2023-03-19T13:21:42;22.40;;;9.55;;
14080;SDS011;7116;52.152;5.392;2023-03-19T13:24:24;17.63;;;9.37;;
14080;SDS011;7116;52.152;5.392;2023-03-19T13:26:50;15.88;;;8.93;;
14080;SDS011;7116;52.152;5.392;2023-03-19T13:29:20;17.05;;;9.45;;
14080;SDS011;7116;52.152;5.392;2023-03-19T13:31:48;18.35;;;10.48;;
14080;SDS011;7116;52.152;5.392;2023-03-19T13:36:42;18.52;;;10.07;;
14080;SDS011;7116;52.152;5.392;2023-03-19T13:39:13;17.90;;;9.57;;
14080;SDS011;7116;52.152;5.392;2023-03-19T13:46:49;18.13;;;9.10;;
14080;SDS011;7116;52.152;5.392;2023-03-19T13:51:43;17.45;;;9.60;;
14080;SDS011;7116;52.152;5.392;2023-03-19T13:59:29;19.02;;;9.30;;
14080;SDS011;7116;52.152;5.392;2023-03-19T14:01:55;19.25;;;10.02;;
14080;SDS011;7116;52.152;5.392;2023-03-19T14:04:22;17.80;;;9.60;;
14080;SDS011;7116;52.152;5.392;2023-03-19T14:09:35;17.58;;;9.65;;
14080;SDS011;7116;52.152;5.392;2023-03-19T14:14:33;17.40;;;9.10;;
14080;SDS011;7116;52.152;5.392;2023-03-19T14:17:03;17.57;;;9.73;;
14080;SDS011;7116;52.152;5.392;2023-03-19T14:19:28;17.20;;;9.30;;
14080;SDS011;7116;52.152;5.392;2023-03-19T14:24:33;16.53;;;9.13;;
14080;SDS011;7116;52.152;5.392;2023-03-19T14:27:03;13.20;;;8.27;;
14080;SDS011;7116;52.152;5.392;2023-03-19T14:29:36;16.92;;;8.43;;
14080;SDS011;7116;52.152;5.392;2023-03-19T14:32:06;12.98;;;8.77;;
14080;SDS011;7116;52.152;5.392;2023-03-19T14:34:34;15.53;;;9.13;;
14080;SDS011;7116;52.152;5.392;2023-03-19T14:39:46;14.00;;;8.50;;
14080;SDS011;7116;52.152;5.392;2023-03-19T14:42:18;13.95;;;8.93;;
14080;SDS011;7116;52.152;5.392;2023-03-19T14:52:31;14.40;;;8.63;;
14080;SDS011;7116;52.152;5.392;2023-03-19T14:55:00;15.38;;;8.63;;
14080;SDS011;7116;52.152;5.392;2023-03-19T14:57:27;14.18;;;8.27;;
14080;SDS011;7116;52.152;5.392;2023-03-19T14:59:53;12.60;;;7.73;;
14080;SDS011;7116;52.152;5.392;2023-03-19T15:04:56;13.38;;;8.32;;
14080;SDS011;7116;52.152;5.392;2023-03-19T15:07:24;14.87;;;9.40;;
14080;SDS011;7116;52.152;5.392;2023-03-19T15:09:52;14.20;;;7.88;;
14080;SDS011;7116;52.152;5.392;2023-03-19T15:14:50;14.60;;;8.77;;
14080;SDS011;7116;52.152;5.392;2023-03-19T15:17:24;12.65;;;8.20;;
14080;SDS011;7116;52.152;5.392;2023-03-19T15:19:51;17.52;;;9.45;;
14080;SDS011;7116;52.152;5.392;2023-03-19T15:22:50;14.27;;;8.63;;
14080;SDS011;7116;52.152;5.392;2023-03-19T15:25:09;17.65;;;9.70;;
14080;SDS011;7116;52.152;5.392;2023-03-19T15:27:35;16.73;;;9.10;;
14080;SDS011;7116;52.152;5.392;2023-03-19T15:30:00;14.57;;;8.63;;
14080;SDS011;7116;52.152;5.392;2023-03-19T15:32:29;18.17;;;8.52;;
14080;SDS011;7116;52.152;5.392;2023-03-19T15:34:55;17.95;;;8.85;;
14080;SDS011;7116;52.152;5.392;2023-03-19T15:37:20;19.80;;;9.47;;
14080;SDS011;7116;52.152;5.392;2023-03-19T15:39:47;17.60;;;9.53;;
14080;SDS011;7116;52.152;5.392;2023-03-19T15:42:13;16.70;;;9.68;;
14080;SDS011;7116;52.152;5.392;2023-03-19T15:44:47;15.27;;;8.97;;
14080;SDS011;7116;52.152;5.392;2023-03-19T15:47:15;14.98;;;9.50;;
14080;SDS011;7116;52.152;5.392;2023-03-19T15:49:43;15.20;;;8.57;;
14080;SDS011;7116;52.152;5.392;2023-03-19T15:52:11;15.90;;;9.20;;
14080;SDS011;7116;52.152;5.392;2023-03-19T15:54:38;15.02;;;9.02;;
14080;SDS011;7116;52.152;5.392;2023-03-19T15:57:04;17.07;;;8.63;;
14080;SDS011;7116;52.152;5.392;2023-03-19T15:59:30;14.05;;;8.43;;
14080;SDS011;7116;52.152;5.392;2023-03-19T16:01:57;17.23;;;9.00;;
14080;SDS011;7116;52.152;5.392;2023-03-19T16:04:23;13.30;;;8.45;;
14080;SDS011;7116;52.152;5.392;2023-03-19T16:06:51;15.35;;;8.82;;
14080;SDS011;7116;52.152;5.392;2023-03-19T16:11:48;19.02;;;9.05;;
14080;SDS011;7116;52.152;5.392;2023-03-19T16:16:38;17.42;;;9.43;;
14080;SDS011;7116;52.152;5.392;2023-03-19T16:19:04;18.40;;;9.75;;
14080;SDS011;7116;52.152;5.392;2023-03-19T16:21:34;15.03;;;9.97;;
14080;SDS011;7116;52.152;5.392;2023-03-19T16:26:29;17.10;;;9.50;;
14080;SDS011;7116;52.152;5.392;2023-03-19T16:31:28;16.35;;;9.63;;
14080;SDS011;7116;52.152;5.392;2023-03-19T16:33:55;16.23;;;9.88;;
14080;SDS011;7116;52.152;5.392;2023-03-19T16:36:21;16.10;;;10.07;;
14080;SDS011;7116;52.152;5.392;2023-03-19T16:38:54;17.13;;;11.03;;
14080;SDS011;7116;52.152;5.392;2023-03-19T16:41:28;18.15;;;11.93;;
14080;SDS011;7116;52.152;5.392;2023-03-19T16:43:58;18.13;;;11.93;;
14080;SDS011;7116;52.152;5.392;2023-03-19T16:46:25;16.67;;;11.10;;
14080;SDS011;7116;52.152;5.392;2023-03-19T16:48:50;21.03;;;12.80;;